Time;durP1;ratioP1;P1;durP2;ratioP2;P2;SDS_P1;SDS_P2;PMS_P1;PMS_P2;Temp;Humidity;BMP_temperature;BMP_pressure;BME280_temperature;BME280_humidity;BME280_pressure;Samples;Min_cycle;Max_cycle;Signal;HPM_P1;HPM_P2
2022/05/19 00:01:02;;;;;;;2.20;2.10;;;19.10;99.90;;;;;;503157;236;28758;-70
2022/05/19 00:03:03;;;;;;;2.10;2.00;;;19.10;99.90;;;;;;503174;236;28801;-70
2022/05/19 00:05:04;;;;;;;2.20;2.10;;;19.10;99.90;;;;;;503157;236;28803;-71
2022/05/19 00:07:05;;;;;;;2.47;2.37;;;19.00;99.90;;;;;;503149;236;28765;-70
2022/05/19 00:09:07;;;;;;;2.10;2.00;;;19.00;99.90;;;;;;503156;236;29234;-71
2022/05/19 00:11:08;;;;;;;2.60;2.40;;;19.00;99.90;;;;;;503155;236;29263;-70
2022/05/19 00:13:09;;;;;;;2.20;2.10;;;18.90;99.90;;;;;;503170;236;29233;-70
2022/05/19 00:15:11;;;;;;;2.20;2.10;;;18.90;99.90;;;;;;503180;236;28793;-71
2022/05/19 00:17:12;;;;;;;2.10;2.00;;;18.90;99.90;;;;;;503116;236;28776;-70
2022/05/19 00:19:13;;;;;;;2.17;2.07;;;18.80;99.90;;;;;;503169;236;28801;-70
2022/05/19 00:21:14;;;;;;;2.50;2.40;;;18.80;99.90;;;;;;503194;236;28781;-70
2022/05/19 00:23:15;;;;;;;2.30;2.20;;;18.70;99.90;;;;;;503166;236;28835;-70
2022/05/19 00:25:19;;;;;;;2.60;2.50;;;18.70;99.90;;;;;;503177;236;28836;-72
2022/05/19 00:27:18;;;;;;;2.70;2.60;;;18.70;99.90;;;;;;502977;236;28892;-70
2022/05/19 00:29:19;;;;;;;2.40;2.30;;;18.70;99.90;;;;;;503072;236;29168;-70
2022/05/19 00:31:20;;;;;;;2.53;2.43;;;18.60;99.90;;;;;;503175;236;28815;-75
2022/05/19 00:33:22;;;;;;;4.67;2.70;;;18.50;99.90;;;;;;503160;236;29250;-70
2022/05/19 00:35:23;;;;;;;2.37;2.27;;;18.50;99.90;;;;;;503134;236;29313;-70
2022/05/19 00:37:24;;;;;;;2.70;2.50;;;18.40;99.90;;;;;;503152;236;29368;-70
2022/05/19 00:39:26;;;;;;;2.87;2.67;;;18.40;99.90;;;;;;503133;236;28849;-69
2022/05/19 00:41:27;;;;;;;3.03;2.83;;;18.40;99.90;;;;;;503167;236;28793;-73
2022/05/19 00:43:28;;;;;;;2.70;2.50;;;18.40;99.90;;;;;;503167;236;28850;-70
2022/05/19 00:45:29;;;;;;;3.00;2.80;;;18.40;99.90;;;;;;503154;236;28798;-72
2022/05/19 00:47:30;;;;;;;3.00;2.80;;;18.30;99.90;;;;;;503142;236;28761;-70
2022/05/19 00:49:32;;;;;;;3.63;3.27;;;18.20;99.90;;;;;;503147;236;28930;-69
2022/05/19 00:51:33;;;;;;;2.90;2.70;;;18.20;99.90;;;;;;503168;236;28894;-74
2022/05/19 00:53:35;;;;;;;3.40;3.20;;;18.10;99.90;;;;;;503143;236;28888;-70
2022/05/19 00:55:35;;;;;;;3.30;3.10;;;18.10;99.90;;;;;;503099;236;28780;-70
2022/05/19 00:57:37;;;;;;;3.80;3.53;;;18.10;99.90;;;;;;503111;236;29305;-70
2022/05/19 00:59:38;;;;;;;3.97;3.67;;;18.20;99.90;;;;;;503115;236;29425;-70
2022/05/19 01:01:39;;;;;;;3.80;3.33;;;18.20;99.90;;;;;;503099;236;29355;-70
2022/05/19 01:03:40;;;;;;;3.77;3.47;;;18.20;99.90;;;;;;503147;236;29359;-70
2022/05/19 01:05:42;;;;;;;4.00;3.40;;;18.20;99.90;;;;;;503113;236;28894;-72
2022/05/19 01:07:43;;;;;;;3.03;2.83;;;18.20;99.90;;;;;;503130;236;28818;-70
2022/05/19 01:09:44;;;;;;;3.60;3.33;;;18.20;99.90;;;;;;503087;236;28878;-70
2022/05/19 01:11:51;;;;;;;4.03;3.60;;;18.20;99.90;;;;;;503102;236;28784;-70
2022/05/19 01:13:47;;;;;;;3.90;3.47;;;18.10;99.90;;;;;;502653;236;28773;-70
2022/05/19 01:15:48;;;;;;;2.83;2.70;;;18.20;99.90;;;;;;503153;236;28898;-72
2022/05/19 01:17:49;;;;;;;3.40;3.20;;;18.10;99.90;;;;;;503128;236;28765;-70
2022/05/19 01:19:50;;;;;;;3.00;2.80;;;18.10;99.90;;;;;;503131;236;28844;-70
2022/05/19 01:21:53;;;;;;;3.40;2.93;;;18.10;99.90;;;;;;503163;236;29339;-70
2022/05/19 01:23:54;;;;;;;3.03;2.80;;;18.10;99.90;;;;;;503163;236;28887;-72
2022/05/19 01:25:55;;;;;;;3.37;3.17;;;18.00;99.90;;;;;;503177;236;28851;-70
2022/05/19 01:27:58;;;;;;;3.03;2.83;;;18.00;99.90;;;;;;503194;236;29310;-71
2022/05/19 01:29:59;;;;;;;3.00;2.80;;;18.00;99.90;;;;;;503167;236;28778;-70
2022/05/19 01:32:00;;;;;;;3.37;3.17;;;18.00;99.90;;;;;;503158;236;29364;-73
2022/05/19 01:34:02;;;;;;;3.97;3.33;;;18.00;99.90;;;;;;503187;236;29219;-70
2022/05/19 01:36:03;;;;;;;3.20;3.00;;;17.90;99.90;;;;;;503120;236;29257;-70
2022/05/19 01:38:04;;;;;;;3.00;2.60;;;17.90;99.90;;;;;;503158;236;29234;-69
2022/05/19 01:40:05;;;;;;;2.97;2.70;;;17.90;99.90;;;;;;503133;236;28792;-70
2022/05/19 01:42:06;;;;;;;5.67;2.70;;;17.90;99.90;;;;;;503174;236;28790;-71
2022/05/19 01:44:08;;;;;;;3.00;2.80;;;17.90;99.90;;;;;;503033;236;28748;-70
2022/05/19 01:46:09;;;;;;;3.20;2.90;;;17.90;99.90;;;;;;503142;236;28800;-70
2022/05/19 01:48:10;;;;;;;3.00;2.80;;;17.80;99.90;;;;;;503073;236;28770;-70
2022/05/19 01:50:11;;;;;;;2.90;2.70;;;17.80;99.90;;;;;;503153;236;28821;-70
2022/05/19 01:52:13;;;;;;;5.00;3.30;;;17.80;99.90;;;;;;503174;236;28814;-70
2022/05/19 01:54:14;;;;;;;4.07;3.70;;;17.80;99.90;;;;;;503199;236;28756;-70
2022/05/19 01:56:15;;;;;;;3.90;3.60;;;17.80;99.90;;;;;;503159;236;28784;-71
2022/05/19 01:58:16;;;;;;;3.67;3.47;;;17.80;99.90;;;;;;503135;236;29313;-70
2022/05/19 02:00:18;;;;;;;3.10;2.90;;;17.80;99.90;;;;;;503136;236;29276;-71
2022/05/19 02:02:19;;;;;;;3.20;2.90;;;17.80;99.90;;;;;;503150;236;29237;-70
2022/05/19 02:04:22;;;;;;;3.37;3.17;;;17.90;99.90;;;;;;503171;236;28826;-70
2022/05/19 02:06:21;;;;;;;3.63;3.33;;;17.90;99.90;;;;;;503001;236;28798;-71
2022/05/19 02:08:23;;;;;;;3.73;3.43;;;17.90;99.90;;;;;;503119;236;28819;-70
2022/05/19 02:10:24;;;;;;;3.27;3.07;;;17.90;99.90;;;;;;503134;236;28798;-71
2022/05/19 02:12:27;;;;;;;3.23;3.03;;;17.80;99.90;;;;;;503163;236;29362;-72
2022/05/19 02:14:27;;;;;;;3.80;3.50;;;17.70;99.90;;;;;;503051;236;29274;-70
2022/05/19 02:16:30;;;;;;;3.17;2.97;;;17.70;99.90;;;;;;503073;236;29332;-70
2022/05/19 02:18:29;;;;;;;2.93;2.73;;;17.60;99.90;;;;;;502981;236;29213;-69
2022/05/19 02:20:30;;;;;;;3.13;2.93;;;17.60;99.90;;;;;;503130;236;28798;-70
2022/05/19 02:22:31;;;;;;;3.80;2.90;;;17.60;99.90;;;;;;503159;236;28800;-70
2022/05/19 02:24:35;;;;;;;2.90;2.70;;;17.60;99.90;;;;;;503140;236;28798;-70
2022/05/19 02:26:36;;;;;;;2.93;2.73;;;17.60;99.90;;;;;;503065;236;28807;-70
2022/05/19 02:28:38;;;;;;;2.60;2.50;;;17.60;99.90;;;;;;502817;236;28746;-70
2022/05/19 02:30:40;;;;;;;2.50;2.40;;;17.50;99.90;;;;;;502911;236;29163;-70
2022/05/19 02:32:41;;;;;;;2.80;2.70;;;17.50;99.90;;;;;;502951;236;28769;-70
2022/05/19 02:34:43;;;;;;;3.10;2.80;;;17.50;99.90;;;;;;503061;236;29304;-71
2022/05/19 02:36:44;;;;;;;2.83;2.70;;;17.50;99.90;;;;;;503135;236;29269;-70
2022/05/19 02:38:45;;;;;;;3.40;3.10;;;17.40;99.90;;;;;;503144;236;29455;-69
2022/05/19 02:40:46;;;;;;;2.83;2.73;;;17.40;99.90;;;;;;503154;236;29099;-69
2022/05/19 02:42:47;;;;;;;3.47;3.00;;;17.40;99.90;;;;;;503144;236;28829;-69
2022/05/19 02:44:48;;;;;;;3.13;2.83;;;17.40;99.90;;;;;;503130;236;28818;-70
2022/05/19 02:46:50;;;;;;;3.13;2.93;;;17.40;99.90;;;;;;503134;236;28747;-70
2022/05/19 02:48:51;;;;;;;2.97;2.77;;;17.40;99.90;;;;;;503132;236;28892;-71
2022/05/19 02:50:52;;;;;;;2.80;2.70;;;17.40;99.90;;;;;;503144;236;28779;-70
2022/05/19 02:52:53;;;;;;;3.03;2.83;;;17.40;99.90;;;;;;503163;236;28816;-70
2022/05/19 02:54:55;;;;;;;3.13;2.93;;;17.30;99.90;;;;;;503155;236;28847;-71
2022/05/19 02:56:56;;;;;;;3.00;2.80;;;17.30;99.90;;;;;;503136;236;28768;-70
2022/05/19 02:58:57;;;;;;;2.87;2.77;;;17.30;99.90;;;;;;503074;236;29244;-70
2022/05/19 03:00:58;;;;;;;2.90;2.70;;;17.30;99.90;;;;;;503127;236;29957;-70
2022/05/19 03:03:00;;;;;;;2.80;2.60;;;17.20;99.90;;;;;;503161;236;29220;-70
2022/05/19 03:05:01;;;;;;;2.43;2.33;;;17.20;99.90;;;;;;503174;236;28818;-70
2022/05/19 03:07:02;;;;;;;2.30;2.20;;;17.20;99.90;;;;;;503177;236;28841;-70
2022/05/19 03:09:04;;;;;;;2.60;2.40;;;17.20;99.90;;;;;;503198;236;28883;-70
2022/05/19 03:11:05;;;;;;;2.40;2.30;;;17.20;99.90;;;;;;503124;236;28771;-70
2022/05/19 03:15:26;;;;;;;2.40;2.30;;;17.10;99.90;;;;;;481279;246;28848;-70
2022/05/19 03:17:28;;;;;;;2.20;2.10;;;17.00;99.90;;;;;;482178;246;28860;-71
2022/05/19 03:19:29;;;;;;;3.10;2.80;;;17.00;99.90;;;;;;497285;239;29991;-71
2022/05/19 03:21:31;;;;;;;2.93;2.53;;;17.00;99.90;;;;;;497341;239;29275;-71
2022/05/19 03:23:31;;;;;;;2.60;2.50;;;16.90;99.90;;;;;;497311;239;29315;-71
2022/05/19 03:25:33;;;;;;;2.30;2.20;;;16.90;99.90;;;;;;497307;239;28866;-71
2022/05/19 03:27:34;;;;;;;2.67;2.57;;;16.90;99.90;;;;;;497276;239;28799;-72
2022/05/19 03:29:35;;;;;;;2.33;2.23;;;16.90;99.90;;;;;;497326;239;29788;-74
2022/05/19 03:31:37;;;;;;;2.50;2.30;;;16.90;99.90;;;;;;497287;239;29211;-71
2022/05/19 03:33:38;;;;;;;2.90;2.70;;;16.90;99.90;;;;;;497308;239;29178;-71
2022/05/19 03:35:40;;;;;;;2.40;2.30;;;16.90;99.90;;;;;;497245;239;28799;-70
2022/05/19 03:37:40;;;;;;;2.40;2.30;;;16.90;99.90;;;;;;497172;239;28877;-71
2022/05/19 03:39:42;;;;;;;2.20;2.10;;;16.80;99.90;;;;;;497333;239;28818;-72
2022/05/19 03:41:43;;;;;;;2.30;2.20;;;16.80;99.90;;;;;;497315;239;28874;-70
2022/05/19 03:43:44;;;;;;;2.20;2.10;;;16.80;99.90;;;;;;497299;239;29293;-71
2022/05/19 03:45:45;;;;;;;2.37;2.27;;;16.80;99.90;;;;;;497309;239;29213;-70
2022/05/19 03:47:47;;;;;;;2.60;2.40;;;16.80;99.90;;;;;;497290;239;29249;-70
2022/05/19 03:49:48;;;;;;;2.73;2.60;;;16.90;99.90;;;;;;497324;239;28699;-72
2022/05/19 03:51:49;;;;;;;2.20;2.10;;;16.80;99.90;;;;;;497313;239;28824;-70
2022/05/19 03:53:50;;;;;;;2.30;2.20;;;16.80;99.90;;;;;;497317;239;28826;-71
2022/05/19 03:55:52;;;;;;;2.10;2.00;;;16.80;99.90;;;;;;497291;239;28763;-70
2022/05/19 03:57:54;;;;;;;2.73;2.50;;;16.80;99.90;;;;;;497270;239;29259;-71
2022/05/19 03:59:55;;;;;;;2.30;2.20;;;16.60;99.90;;;;;;497232;239;29319;-71
2022/05/19 04:01:55;;;;;;;2.17;2.07;;;16.60;99.90;;;;;;497311;239;29293;-71
2022/05/19 04:03:57;;;;;;;2.03;1.93;;;16.60;99.90;;;;;;497306;239;28791;-71
2022/05/19 04:05:58;;;;;;;2.40;2.20;;;16.60;99.90;;;;;;497303;239;28818;-70
2022/05/19 04:07:59;;;;;;;2.20;2.10;;;16.50;99.90;;;;;;497283;239;28818;-70
2022/05/19 04:10:01;;;;;;;2.40;2.20;;;16.60;99.90;;;;;;497320;239;29261;-73
2022/05/19 04:12:02;;;;;;;2.37;2.27;;;16.60;99.90;;;;;;497316;239;29359;-70
2022/05/19 04:14:03;;;;;;;2.10;2.00;;;16.70;99.90;;;;;;497324;239;29353;-71
2022/05/19 04:16:04;;;;;;;2.40;2.30;;;16.70;99.90;;;;;;497244;239;28796;-70
2022/05/19 04:18:06;;;;;;;2.50;2.37;;;16.70;99.90;;;;;;497235;239;28822;-70
2022/05/19 04:20:09;;;;;;;2.10;2.00;;;16.70;99.90;;;;;;497310;239;28911;-70
2022/05/19 04:22:10;;;;;;;2.27;2.17;;;16.60;99.90;;;;;;497323;239;28763;-70
2022/05/19 04:24:11;;;;;;;2.00;1.90;;;16.60;99.90;;;;;;497290;239;28869;-70
2022/05/19 04:26:13;;;;;;;2.37;2.27;;;16.60;99.90;;;;;;497264;239;28757;-70
2022/05/19 04:28:14;;;;;;;2.53;2.20;;;16.60;99.90;;;;;;497278;239;28819;-70
2022/05/19 04:30:15;;;;;;;2.50;2.30;;;16.50;99.90;;;;;;497315;239;29090;-70
2022/05/19 04:32:17;;;;;;;3.00;2.90;;;16.20;99.90;;;;;;497326;239;28851;-71
2022/05/19 04:34:18;;;;;;;3.40;3.20;;;16.20;99.90;;;;;;497215;239;29728;-70
2022/05/19 04:36:19;;;;;;;3.10;2.90;;;16.20;99.90;;;;;;497276;239;30063;-70
2022/05/19 04:38:20;;;;;;;2.83;2.73;;;16.10;99.90;;;;;;497280;239;29701;-70
2022/05/19 04:40:21;;;;;;;3.40;3.23;;;16.10;99.90;;;;;;497305;239;28836;-70
2022/05/19 04:42:23;;;;;;;3.63;3.43;;;16.00;99.90;;;;;;497301;239;28841;-70
2022/05/19 04:44:24;;;;;;;3.30;3.10;;;16.00;99.90;;;;;;497260;239;28868;-73
2022/05/19 04:46:25;;;;;;;3.60;3.40;;;16.10;99.90;;;;;;497273;239;28847;-71
2022/05/19 04:48:26;;;;;;;3.13;2.93;;;16.20;99.90;;;;;;497179;239;28930;-71
2022/05/19 04:50:28;;;;;;;3.30;3.10;;;16.20;99.90;;;;;;497289;239;28702;-70
2022/05/19 04:52:29;;;;;;;3.43;3.23;;;16.10;99.90;;;;;;497270;239;28808;-71
2022/05/19 04:54:30;;;;;;;3.40;3.10;;;16.20;99.90;;;;;;497271;239;28789;-71
2022/05/19 04:56:31;;;;;;;3.93;3.73;;;16.30;99.90;;;;;;497279;239;28757;-70
2022/05/19 04:58:33;;;;;;;3.40;3.20;;;16.40;99.90;;;;;;497258;239;29230;-71
2022/05/19 05:00:34;;;;;;;3.53;3.30;;;16.60;99.90;;;;;;497303;239;29260;-71
2022/05/19 05:02:35;;;;;;;3.43;3.23;;;16.70;99.90;;;;;;497298;239;29216;-70
2022/05/19 05:04:36;;;;;;;3.27;3.07;;;16.70;99.90;;;;;;497326;239;28789;-70
2022/05/19 05:06:38;;;;;;;3.73;3.53;;;16.80;99.90;;;;;;497295;239;28855;-70
2022/05/19 05:08:39;;;;;;;3.37;3.17;;;16.90;99.90;;;;;;497305;239;28812;-71
2022/05/19 05:10:40;;;;;;;4.37;4.07;;;16.60;99.90;;;;;;497302;239;28828;-73
2022/05/19 05:12:41;;;;;;;3.60;3.30;;;16.40;99.90;;;;;;497280;239;28746;-71
2022/05/19 05:14:43;;;;;;;3.80;3.60;;;16.50;99.90;;;;;;497229;239;28817;-71
2022/05/19 05:16:44;;;;;;;4.07;3.87;;;16.50;99.90;;;;;;497299;239;28761;-72
2022/05/19 05:18:45;;;;;;;4.00;3.80;;;16.60;99.90;;;;;;497305;239;28769;-70
2022/05/19 05:20:46;;;;;;;3.73;3.53;;;16.80;99.90;;;;;;497304;239;28797;-72
2022/05/19 05:22:48;;;;;;;4.10;3.90;;;17.00;99.90;;;;;;497312;239;29216;-71
2022/05/19 05:24:49;;;;;;;3.90;3.70;;;17.20;99.90;;;;;;497290;239;29373;-70
2022/05/19 05:26:50;;;;;;;4.17;3.90;;;17.20;99.90;;;;;;497282;239;29311;-70
2022/05/19 05:28:51;;;;;;;4.00;3.80;;;17.20;99.90;;;;;;497307;239;29280;-70
2022/05/19 05:30:53;;;;;;;3.70;3.50;;;17.30;99.90;;;;;;497317;239;28788;-70
2022/05/19 05:32:54;;;;;;;3.80;3.60;;;17.40;99.90;;;;;;497284;239;28762;-70
2022/05/19 05:34:55;;;;;;;4.07;3.80;;;17.40;99.90;;;;;;497291;239;28891;-70
2022/05/19 05:36:56;;;;;;;3.87;3.67;;;17.50;99.90;;;;;;497259;239;29251;-75
2022/05/19 05:38:58;;;;;;;4.00;3.80;;;17.50;99.90;;;;;;497283;239;28793;-71
2022/05/19 05:41:02;;;;;;;3.83;3.63;;;17.60;99.90;;;;;;497272;239;29336;-71
2022/05/19 05:43:00;;;;;;;3.17;2.97;;;17.60;99.90;;;;;;497137;239;29206;-70
2022/05/19 05:45:01;;;;;;;3.00;2.90;;;17.60;99.90;;;;;;497266;239;29374;-71
2022/05/19 05:47:03;;;;;;;3.53;3.23;;;17.70;99.90;;;;;;497311;239;28837;-71
2022/05/19 05:49:04;;;;;;;3.10;2.90;;;17.80;99.90;;;;;;497324;239;28785;-71
2022/05/19 05:51:05;;;;;;;3.30;3.10;;;17.80;99.90;;;;;;497303;239;28793;-71
2022/05/19 05:53:06;;;;;;;3.30;3.10;;;17.90;99.90;;;;;;497323;239;28761;-71
2022/05/19 05:55:08;;;;;;;3.50;3.20;;;17.90;99.90;;;;;;497306;239;28863;-71
2022/05/19 05:57:09;;;;;;;3.30;3.10;;;18.00;99.90;;;;;;497299;239;28817;-74
2022/05/19 05:59:10;;;;;;;3.70;3.40;;;18.10;99.90;;;;;;497290;239;28769;-72
2022/05/19 06:01:11;;;;;;;3.33;3.13;;;18.20;99.90;;;;;;497275;239;28809;-72
2022/05/19 06:03:13;;;;;;;3.70;3.10;;;18.20;99.90;;;;;;497297;239;28766;-70
2022/05/19 06:05:14;;;;;;;3.30;3.10;;;18.30;99.90;;;;;;497246;239;29265;-70
2022/05/19 06:07:15;;;;;;;3.00;2.80;;;18.30;99.90;;;;;;497303;239;29292;-71
2022/05/19 06:09:16;;;;;;;3.33;3.23;;;18.40;99.90;;;;;;497268;239;29294;-71
2022/05/19 06:11:18;;;;;;;2.80;2.67;;;18.50;99.90;;;;;;497230;239;28824;-72
2022/05/19 06:13:19;;;;;;;2.80;2.70;;;18.60;99.90;;;;;;497274;239;28824;-70
2022/05/19 06:15:20;;;;;;;3.47;3.27;;;18.60;99.90;;;;;;497238;239;28885;-71
2022/05/19 06:17:22;;;;;;;3.60;3.40;;;18.70;99.90;;;;;;497246;239;28833;-76
2022/05/19 06:19:23;;;;;;;3.20;3.00;;;18.70;99.90;;;;;;497253;239;28754;-71
2022/05/19 06:21:25;;;;;;;3.50;3.30;;;18.80;99.90;;;;;;497235;239;29342;-72
2022/05/19 06:23:25;;;;;;;3.13;2.93;;;18.90;99.90;;;;;;497220;239;29292;-70
2022/05/19 06:25:26;;;;;;;3.00;2.83;;;19.00;99.90;;;;;;497258;239;29252;-72
2022/05/19 06:27:28;;;;;;;3.43;3.23;;;19.10;99.90;;;;;;497242;239;28887;-73
2022/05/19 06:29:29;;;;;;;3.60;3.40;;;19.10;99.90;;;;;;497260;239;28793;-71
2022/05/19 06:31:31;;;;;;;3.33;3.13;;;19.20;99.90;;;;;;497246;239;28864;-72
2022/05/19 06:33:34;;;;;;;3.33;3.13;;;19.20;99.90;;;;;;497181;239;28853;-71
2022/05/19 06:35:33;;;;;;;3.10;3.00;;;19.30;99.90;;;;;;497118;239;28852;-72
2022/05/19 06:37:34;;;;;;;3.60;3.40;;;19.30;99.90;;;;;;497262;239;28807;-75
2022/05/19 06:39:35;;;;;;;3.30;3.10;;;19.40;99.90;;;;;;497269;239;28872;-71
2022/05/19 06:43:56;;;;;;;2.97;2.77;;;19.50;99.90;;;;;;497289;239;28832;-72
2022/05/19 06:45:57;;;;;;;3.10;2.90;;;19.70;99.90;;;;;;497215;239;28757;-71
2022/05/19 06:47:59;;;;;;;3.00;2.80;;;19.80;99.90;;;;;;497244;239;28712;-72
2022/05/19 06:50:00;;;;;;;2.83;2.70;;;19.90;99.90;;;;;;497224;239;28808;-71
2022/05/19 06:52:01;;;;;;;2.90;2.70;;;19.90;99.90;;;;;;497241;239;28771;-71
2022/05/19 06:54:02;;;;;;;4.53;3.00;;;20.10;99.90;;;;;;497244;239;28792;-74
2022/05/19 06:56:04;;;;;;;2.87;2.70;;;20.20;99.90;;;;;;497252;239;28844;-71
2022/05/19 06:58:05;;;;;;;3.20;3.00;;;20.40;99.90;;;;;;497252;239;28792;-72
2022/05/19 07:00:06;;;;;;;3.10;2.80;;;20.50;99.90;;;;;;497247;239;30077;-71
2022/05/19 07:02:07;;;;;;;3.13;2.93;;;20.70;99.90;;;;;;497251;239;29289;-71
2022/05/19 07:04:09;;;;;;;3.10;2.90;;;20.80;99.90;;;;;;497286;239;29286;-74
2022/05/19 07:06:10;;;;;;;2.90;2.70;;;20.90;99.90;;;;;;497243;239;29363;-74
2022/05/19 07:08:11;;;;;;;2.90;2.70;;;21.10;99.90;;;;;;497248;239;28878;-72
2022/05/19 07:10:12;;;;;;;3.27;3.07;;;21.20;99.90;;;;;;497219;239;28866;-71
2022/05/19 07:12:14;;;;;;;2.40;2.30;;;21.30;99.90;;;;;;497260;239;28701;-71
2022/05/19 07:14:15;;;;;;;3.00;2.80;;;21.40;99.90;;;;;;497268;239;28814;-74
2022/05/19 07:16:16;;;;;;;3.20;3.00;;;21.50;99.90;;;;;;497236;239;28899;-71
2022/05/19 07:18:17;;;;;;;3.27;3.00;;;21.60;99.90;;;;;;497253;239;28847;-73
2022/05/19 07:22:38;;;;;;;2.87;2.67;;;21.80;99.90;;;;;;497029;239;28795;-71
2022/05/19 07:24:39;;;;;;;2.77;2.60;;;21.80;99.90;;;;;;497238;239;28905;-71
2022/05/19 07:26:41;;;;;;;3.30;3.10;;;21.80;99.90;;;;;;497236;239;29168;-71
2022/05/19 07:28:42;;;;;;;2.43;2.33;;;22.00;99.90;;;;;;497266;239;28761;-71
2022/05/19 07:30:46;;;;;;;2.93;2.73;;;22.10;99.90;;;;;;497267;239;29373;-73
2022/05/19 07:32:45;;;;;;;3.07;2.97;;;22.10;99.90;;;;;;497125;239;28787;-71
2022/05/19 07:34:46;;;;;;;3.03;2.83;;;22.20;99.90;;;;;;497236;239;29308;-71
2022/05/19 07:36:47;;;;;;;3.00;2.80;;;22.20;99.90;;;;;;497244;239;29430;-74
2022/05/19 07:38:48;;;;;;;3.40;3.20;;;22.20;99.90;;;;;;497260;239;29282;-71
2022/05/19 07:40:54;;;;;;;3.30;3.10;;;22.30;99.90;;;;;;497270;239;29340;-72
2022/05/19 07:42:51;;;;;;;3.00;2.80;;;22.40;99.90;;;;;;497000;239;28808;-71
2022/05/19 07:44:52;;;;;;;3.30;3.10;;;22.40;99.90;;;;;;497239;239;28808;-72
2022/05/19 07:46:53;;;;;;;2.80;2.70;;;22.40;99.90;;;;;;497262;239;28840;-71
2022/05/19 07:48:55;;;;;;;3.20;3.00;;;22.50;99.90;;;;;;497248;239;28772;-72
2022/05/19 07:50:56;;;;;;;3.00;2.70;;;22.40;99.90;;;;;;497260;239;28799;-73
2022/05/19 07:52:57;;;;;;;3.30;3.00;;;22.50;99.90;;;;;;497261;239;28776;-71
2022/05/19 07:54:58;;;;;;;3.53;3.17;;;22.50;99.90;;;;;;497276;239;28921;-72
2022/05/19 07:57:00;;;;;;;2.90;2.80;;;22.60;99.90;;;;;;497285;239;28919;-74
2022/05/19 07:59:01;;;;;;;3.50;3.20;;;22.60;99.90;;;;;;497271;239;29319;-71
2022/05/19 08:01:02;;;;;;;3.50;3.20;;;22.60;99.90;;;;;;497233;239;29205;-72
2022/05/19 08:03:03;;;;;;;3.80;3.50;;;22.60;99.90;;;;;;497221;239;29223;-71
2022/05/19 08:05:05;;;;;;;3.30;3.10;;;22.70;99.90;;;;;;497227;239;29267;-71
2022/05/19 08:07:06;;;;;;;3.33;3.07;;;22.70;99.90;;;;;;497245;239;28899;-74
2022/05/19 08:11:27;;;;;;;3.20;2.93;;;22.70;99.90;;;;;;497113;238;28792;-71
2022/05/19 08:15:47;;;;;;;3.77;3.33;;;22.80;99.90;;;;;;497231;238;29348;-71
2022/05/19 08:17:49;;;;;;;4.10;3.90;;;22.80;99.90;;;;;;497219;239;29361;-71
2022/05/19 08:19:50;;;;;;;4.20;3.90;;;22.80;99.90;;;;;;497226;239;28884;-71
2022/05/19 08:21:51;;;;;;;4.40;4.10;;;22.80;99.90;;;;;;497234;239;28782;-70
2022/05/19 08:23:52;;;;;;;4.37;4.07;;;22.80;99.90;;;;;;497244;239;28881;-73
2022/05/19 08:25:54;;;;;;;4.73;4.33;;;22.90;99.90;;;;;;497247;239;28766;-71
2022/05/19 08:27:55;;;;;;;3.60;3.40;;;22.90;99.90;;;;;;497239;239;28923;-72
2022/05/19 08:29:56;;;;;;;4.40;4.00;;;23.00;99.90;;;;;;497214;239;28785;-71
2022/05/19 08:31:57;;;;;;;3.80;3.50;;;23.00;99.90;;;;;;497230;239;28797;-71
2022/05/19 08:34:03;;;;;;;3.63;3.33;;;23.10;99.90;;;;;;497268;239;28798;-73
2022/05/19 08:36:00;;;;;;;3.83;3.53;;;23.20;99.90;;;;;;496946;239;29311;-73
2022/05/19 08:38:01;;;;;;;3.80;3.50;;;23.30;99.90;;;;;;497204;239;29384;-72
2022/05/19 08:40:02;;;;;;;4.80;3.73;;;23.30;99.90;;;;;;497213;239;29267;-70
2022/05/19 08:42:04;;;;;;;6.37;4.03;;;23.50;99.90;;;;;;497237;239;29310;-71
2022/05/19 08:44:05;;;;;;;3.30;3.10;;;23.60;99.90;;;;;;497240;239;28907;-73
2022/05/19 08:46:06;;;;;;;4.33;3.70;;;23.60;99.90;;;;;;497212;239;28756;-71
2022/05/19 08:48:07;;;;;;;4.10;3.70;;;23.60;99.90;;;;;;497128;239;28844;-71
2022/05/19 08:50:09;;;;;;;4.23;3.93;;;23.80;99.90;;;;;;497228;239;28785;-71
2022/05/19 08:52:10;;;;;;;4.23;3.90;;;23.90;99.90;;;;;;497242;239;28801;-71
2022/05/19 08:54:11;;;;;;;4.83;4.10;;;24.00;99.90;;;;;;497241;239;28947;-74
2022/05/19 08:56:13;;;;;;;4.07;3.33;;;24.10;99.90;;;;;;497216;239;28863;-71
2022/05/19 08:58:14;;;;;;;3.87;3.47;;;24.00;99.90;;;;;;497231;239;28793;-71
2022/05/19 09:00:15;;;;;;;3.87;3.57;;;24.00;99.90;;;;;;497238;239;28745;-71
2022/05/19 09:02:16;;;;;;;4.03;3.27;;;24.00;99.90;;;;;;497209;239;29277;-71
2022/05/19 09:04:18;;;;;;;3.53;3.23;;;24.00;99.90;;;;;;497231;239;29366;-72
2022/05/19 09:06:19;;;;;;;3.30;3.10;;;24.00;99.90;;;;;;497221;239;29267;-71
2022/05/19 09:08:20;;;;;;;3.80;3.60;;;24.10;99.90;;;;;;497226;239;28805;-71
2022/05/19 09:10:21;;;;;;;3.60;3.30;;;24.10;99.90;;;;;;497222;239;28790;-71
2022/05/19 09:12:23;;;;;;;4.30;3.20;;;24.20;99.90;;;;;;497252;239;28678;-71
2022/05/19 09:14:24;;;;;;;3.70;3.47;;;24.20;99.90;;;;;;497222;239;28882;-71
2022/05/19 09:16:25;;;;;;;3.50;3.20;;;24.20;99.90;;;;;;497242;239;28754;-71
2022/05/19 09:18:26;;;;;;;3.30;3.10;;;24.30;99.90;;;;;;497230;239;28837;-71
2022/05/19 09:20:28;;;;;;;3.97;3.17;;;24.40;99.90;;;;;;497244;239;29250;-74
2022/05/19 09:22:33;;;;;;;3.90;3.60;;;24.50;99.90;;;;;;497227;239;28954;-71
2022/05/19 09:24:30;;;;;;;3.83;3.40;;;24.60;99.90;;;;;;496979;239;28901;-71
2022/05/19 09:26:31;;;;;;;3.43;3.23;;;24.60;99.90;;;;;;497209;239;29292;-71
2022/05/19 09:28:33;;;;;;;4.33;3.60;;;24.60;99.90;;;;;;497221;239;29377;-71
2022/05/19 09:30:34;;;;;;;4.37;3.70;;;24.70;99.90;;;;;;497252;239;29344;-74
2022/05/19 09:32:37;;;;;;;4.20;3.80;;;24.60;99.90;;;;;;497231;239;28856;-71
2022/05/19 09:34:36;;;;;;;3.37;3.13;;;24.60;99.90;;;;;;496972;239;28809;-72
2022/05/19 09:36:41;;;;;;;3.27;3.07;;;24.70;99.90;;;;;;497013;239;28761;-71
2022/05/19 09:38:42;;;;;;;5.17;3.70;;;24.80;99.90;;;;;;496964;239;29291;-71
2022/05/19 09:40:43;;;;;;;4.53;4.17;;;24.70;99.90;;;;;;497200;239;29245;-71
2022/05/19 09:42:44;;;;;;;5.97;3.93;;;24.90;99.90;;;;;;497240;239;29383;-74
2022/05/19 09:44:45;;;;;;;4.20;3.80;;;24.90;99.90;;;;;;497256;239;28765;-71
2022/05/19 09:46:54;;;;;;;3.97;3.40;;;25.00;99.90;;;;;;497254;239;28880;-72
2022/05/19 09:48:51;;;;;;;4.00;3.60;;;25.00;99.90;;;;;;496979;239;29273;-71
2022/05/19 09:50:52;;;;;;;4.00;3.53;;;25.10;99.90;;;;;;497160;239;29225;-71
2022/05/19 09:52:53;;;;;;;5.83;3.57;;;25.20;99.90;;;;;;497265;239;28848;-71
2022/05/19 09:54:55;;;;;;;4.03;3.57;;;25.10;99.90;;;;;;497257;239;28799;-73
2022/05/19 09:56:56;;;;;;;3.93;3.30;;;25.20;99.90;;;;;;497243;239;28852;-72
2022/05/19 09:58:58;;;;;;;6.17;3.37;;;25.20;99.90;;;;;;497231;239;28821;-72
2022/05/19 10:00:58;;;;;;;3.23;3.00;;;25.20;99.90;;;;;;497232;239;28847;-71
2022/05/19 10:02:59;;;;;;;3.57;3.27;;;25.10;99.90;;;;;;497242;239;28772;-71
2022/05/19 10:05:01;;;;;;;5.97;3.80;;;25.10;99.90;;;;;;497244;239;28841;-73
2022/05/19 10:07:02;;;;;;;4.00;3.70;;;25.20;99.90;;;;;;497235;239;28774;-71
2022/05/19 10:09:03;;;;;;;3.40;3.13;;;25.30;99.90;;;;;;497182;239;28872;-71
2022/05/19 10:11:04;;;;;;;3.53;3.23;;;25.30;99.90;;;;;;497218;239;29998;-72
2022/05/19 10:13:06;;;;;;;3.30;3.00;;;25.40;99.90;;;;;;497244;239;29194;-71
2022/05/19 10:15:07;;;;;;;3.83;3.13;;;25.40;99.90;;;;;;497230;239;29299;-73
2022/05/19 10:17:08;;;;;;;4.10;2.60;;;25.40;99.90;;;;;;497216;239;28848;-71
2022/05/19 10:19:09;;;;;;;3.37;3.13;;;25.50;99.90;;;;;;497227;239;28801;-71
2022/05/19 10:21:11;;;;;;;2.97;2.77;;;25.60;99.90;;;;;;497199;239;28915;-71
2022/05/19 10:23:14;;;;;;;3.47;3.03;;;25.60;99.90;;;;;;497233;239;28859;-72
2022/05/19 10:25:13;;;;;;;3.07;2.80;;;25.70;99.90;;;;;;497153;239;28792;-73
2022/05/19 10:31:53;;;;;;;3.07;2.87;;;26.10;99.90;;;;;;497123;238;29264;-74
2022/05/19 10:33:55;;;;;;;4.00;3.30;;;26.40;99.90;;;;;;497225;239;29298;-72
2022/05/19 10:35:56;;;;;;;3.60;3.30;;;26.60;99.90;;;;;;497192;239;29267;-71
2022/05/19 10:37:57;;;;;;;3.23;3.00;;;26.60;99.90;;;;;;497237;239;29495;-71
2022/05/19 10:39:58;;;;;;;3.70;3.40;;;26.70;99.90;;;;;;497252;239;28757;-71
2022/05/19 10:42:00;;;;;;;3.47;3.10;;;26.70;99.90;;;;;;497241;239;28825;-74
2022/05/19 10:44:01;;;;;;;3.93;3.63;;;26.60;99.90;;;;;;497225;239;28900;-71
2022/05/19 10:46:02;;;;;;;3.63;3.33;;;26.60;99.90;;;;;;497196;239;28892;-72
2022/05/19 10:48:04;;;;;;;2.73;2.53;;;26.60;99.90;;;;;;497200;239;28805;-71